Time;durP1;ratioP1;P1;durP2;ratioP2;P2;SDS_P1;SDS_P2;PMS_P1;PMS_P2;Temp;Humidity;BMP_temperature;BMP_pressure;BME280_temperature;BME280_humidity;BME280_pressure;Samples;Min_cycle;Max_cycle;Signal;HPM_P1;HPM_P2
2022/01/13 00:02:16;;;;;;;136.85;18.63;;;4.00;99.90;;;;;;5024023;28;20057;-46
2022/01/13 00:04:43;;;;;;;93.95;17.10;;;4.00;99.90;;;;;;5022568;28;20041;-50
2022/01/13 00:07:10;;;;;;;110.47;17.33;;;4.00;99.90;;;;;;5006306;28;20053;-47
2022/01/13 00:09:36;;;;;;;106.43;17.77;;;4.00;99.90;;;;;;5025249;28;20053;-51
2022/01/13 00:12:03;;;;;;;75.00;15.48;;;3.90;99.90;;;;;;5002545;28;20484;-46
2022/01/13 00:22:39;;;;;;;80.97;17.58;;;4.00;99.90;;;;;;5026888;28;20053;-47
2022/01/13 00:24:59;;;;;;;90.38;18.10;;;4.00;99.90;;;;;;4898370;29;20063;-48
2022/01/13 00:27:28;;;;;;;106.45;19.88;;;4.10;99.90;;;;;;4898880;29;20060;-49
2022/01/13 00:29:56;;;;;;;75.70;17.42;;;4.00;99.90;;;;;;4902196;29;20071;-48
2022/01/13 00:32:25;;;;;;;62.70;15.52;;;4.00;99.90;;;;;;4878013;29;20072;-47
2022/01/13 00:34:50;;;;;;;78.07;18.88;;;4.00;99.90;;;;;;4901832;29;20052;-50
2022/01/13 00:37:16;;;;;;;85.78;18.08;;;4.00;99.90;;;;;;4890911;29;20083;-47
2022/01/13 00:39:42;;;;;;;76.50;18.30;;;4.00;99.90;;;;;;4897779;29;20062;-49
2022/01/13 00:42:08;;;;;;;88.40;18.20;;;4.00;99.90;;;;;;4900203;29;20164;-47
2022/01/13 00:44:38;;;;;;;71.72;17.63;;;4.10;99.90;;;;;;4898322;29;20124;-48
2022/01/13 00:47:08;;;;;;;88.40;18.55;;;4.10;99.90;;;;;;4885583;29;20060;-47
2022/01/13 00:49:34;;;;;;;109.38;19.92;;;4.00;99.90;;;;;;4885525;29;20201;-48
2022/01/13 00:52:00;;;;;;;74.30;17.65;;;4.00;99.90;;;;;;4886973;29;20063;-47
2022/01/13 00:54:28;;;;;;;93.82;19.05;;;4.00;99.90;;;;;;4899330;29;20055;-47
2022/01/13 00:56:54;;;;;;;87.47;19.35;;;4.10;99.90;;;;;;4892955;29;20060;-49
2022/01/13 00:59:23;;;;;;;111.15;19.58;;;4.00;99.90;;;;;;4896383;29;20721;-50
2022/01/13 01:01:52;;;;;;;106.35;18.25;;;4.10;99.90;;;;;;4939966;28;20101;-47
2022/01/13 01:04:18;;;;;;;60.85;16.45;;;4.10;99.90;;;;;;4996838;28;20489;-47
2022/01/13 01:06:50;;;;;;;101.05;19.30;;;4.10;99.90;;;;;;5003326;28;20137;-48
2022/01/13 01:09:27;;;;;;;96.05;19.67;;;4.20;99.90;;;;;;4995219;28;20049;-47
2022/01/13 01:11:55;;;;;;;82.72;19.70;;;4.20;99.90;;;;;;5001399;28;20522;-48
2022/01/13 01:14:21;;;;;;;96.97;19.13;;;4.20;99.90;;;;;;5003040;28;20647;-48
2022/01/13 01:16:46;;;;;;;86.70;16.27;;;4.10;99.90;;;;;;5001746;28;20064;-47
2022/01/13 01:19:14;;;;;;;109.45;18.13;;;4.20;99.90;;;;;;5004919;28;20447;-48
2022/01/13 01:26:53;;;;;;;79.18;14.50;;;4.20;99.90;;;;;;5003771;28;20054;-50
2022/01/13 01:29:38;;;;;;;126.63;17.85;;;4.10;99.90;;;;;;4993183;28;20536;-48
2022/01/13 01:32:09;;;;;;;108.97;18.98;;;4.10;99.90;;;;;;5005830;28;20157;-49
2022/01/13 01:37:18;;;;;;;95.95;17.60;;;4.10;99.90;;;;;;5002528;28;20054;-50
2022/01/13 01:39:46;;;;;;;130.52;18.70;;;4.10;99.90;;;;;;4999956;28;20513;-50
2022/01/13 01:42:13;;;;;;;108.75;18.23;;;4.20;99.90;;;;;;5003374;28;20128;-49
2022/01/13 01:44:43;;;;;;;88.70;16.65;;;4.20;99.90;;;;;;5001627;28;20545;-48
2022/01/13 01:47:11;;;;;;;149.18;22.58;;;4.10;99.90;;;;;;5005710;28;20428;-47
2022/01/13 01:49:42;;;;;;;169.45;26.23;;;4.20;99.90;;;;;;5004149;28;20064;-48
2022/01/13 01:52:10;;;;;;;118.50;21.17;;;4.20;99.90;;;;;;5006056;28;20115;-47
2022/01/13 01:54:41;;;;;;;152.27;25.13;;;4.20;99.90;;;;;;5006304;28;20042;-47
2022/01/13 01:57:08;;;;;;;150.00;23.58;;;4.10;99.90;;;;;;4997984;28;20516;-47
2022/01/13 01:59:38;;;;;;;104.70;21.55;;;4.20;99.90;;;;;;5007915;28;20084;-46
2022/01/13 02:02:12;;;;;;;177.95;25.23;;;4.20;99.90;;;;;;5009070;28;20087;-48
2022/01/13 02:04:39;;;;;;;151.90;26.50;;;4.20;99.90;;;;;;5005842;28;20106;-47
2022/01/13 02:07:07;;;;;;;155.60;24.15;;;4.30;99.90;;;;;;5009106;28;20128;-47
2022/01/13 02:09:50;;;;;;;132.93;22.55;;;4.30;99.90;;;;;;5027411;28;20066;-47
2022/01/13 02:12:28;;;;;;;131.27;23.83;;;4.30;99.90;;;;;;5027428;28;20076;-47
2022/01/13 02:15:05;;;;;;;145.55;25.65;;;4.30;99.90;;;;;;5026582;28;20115;-48
2022/01/13 02:17:34;;;;;;;165.27;23.80;;;4.30;99.90;;;;;;5027375;28;20049;-49
2022/01/13 02:20:03;;;;;;;140.15;24.27;;;4.30;99.90;;;;;;5008191;28;20516;-47
2022/01/13 02:22:31;;;;;;;110.18;19.98;;;4.30;99.90;;;;;;5009853;28;20092;-49
2022/01/13 02:25:00;;;;;;;161.20;24.90;;;4.40;99.90;;;;;;5022398;28;20049;-47
2022/01/13 02:27:26;;;;;;;141.55;23.73;;;4.30;99.90;;;;;;5009009;28;20060;-47
2022/01/13 02:29:52;;;;;;;133.55;23.48;;;4.40;99.90;;;;;;5008055;28;20057;-48
2022/01/13 02:32:21;;;;;;;166.15;25.30;;;4.40;99.90;;;;;;5009018;28;20056;-48
2022/01/13 02:34:48;;;;;;;98.15;19.77;;;4.40;99.90;;;;;;5017655;28;20482;-48
2022/01/13 02:37:14;;;;;;;127.28;22.17;;;4.40;99.90;;;;;;5022385;28;20053;-47
2022/01/13 02:39:43;;;;;;;110.55;21.83;;;4.40;99.90;;;;;;5024845;28;20037;-49
2022/01/13 02:42:14;;;;;;;94.18;20.92;;;4.40;99.90;;;;;;5029788;28;20048;-49
2022/01/13 02:44:52;;;;;;;163.80;25.27;;;4.40;99.90;;;;;;5027238;28;20045;-50
2022/01/13 02:47:34;;;;;;;128.02;22.95;;;4.50;99.90;;;;;;5023930;28;20494;-47
2022/01/13 02:50:04;;;;;;;118.57;23.42;;;4.50;99.90;;;;;;5008162;28;20526;-50
2022/01/13 02:52:31;;;;;;;133.60;23.38;;;4.50;99.90;;;;;;5001552;28;20061;-47
2022/01/13 02:54:57;;;;;;;87.22;20.67;;;4.50;99.90;;;;;;5020552;28;20531;-47
2022/01/13 02:57:23;;;;;;;113.15;21.38;;;4.50;99.90;;;;;;5016483;28;20053;-47
2022/01/13 02:59:49;;;;;;;147.27;24.63;;;4.50;99.90;;;;;;5027991;28;20093;-48
2022/01/13 03:02:28;;;;;;;95.57;20.52;;;4.60;99.90;;;;;;5025777;28;20053;-48
2022/01/13 03:04:54;;;;;;;87.32;20.23;;;4.50;99.90;;;;;;5004450;28;20045;-47
2022/01/13 03:07:21;;;;;;;132.20;21.40;;;4.50;99.90;;;;;;5020273;28;20056;-47
2022/01/13 03:09:47;;;;;;;156.10;24.67;;;4.40;99.90;;;;;;5022841;28;20560;-47
2022/01/13 03:12:12;;;;;;;104.50;19.48;;;4.50;99.90;;;;;;5024095;28;20045;-47
2022/01/13 03:14:39;;;;;;;120.93;21.08;;;4.50;99.90;;;;;;5025181;28;20049;-47
2022/01/13 03:17:05;;;;;;;128.18;22.55;;;4.50;99.90;;;;;;4999289;28;20045;-49
2022/01/13 03:19:31;;;;;;;93.15;18.42;;;4.50;99.90;;;;;;5005725;28;20053;-47
2022/01/13 03:21:57;;;;;;;158.73;24.25;;;4.40;99.90;;;;;;5025644;28;20136;-49
2022/01/13 03:24:23;;;;;;;158.38;24.52;;;4.50;99.90;;;;;;5019155;28;20510;-48
2022/01/13 03:26:49;;;;;;;115.47;22.67;;;4.50;99.90;;;;;;5024322;28;20041;-49
2022/01/13 03:29:17;;;;;;;102.53;18.42;;;4.50;99.90;;;;;;5004239;28;20068;-47
2022/01/13 03:31:44;;;;;;;105.53;20.48;;;4.50;99.90;;;;;;5019786;28;20100;-48
2022/01/13 03:34:11;;;;;;;127.53;20.80;;;4.50;99.90;;;;;;5024449;28;20106;-47
2022/01/13 03:36:37;;;;;;;131.15;22.52;;;4.50;99.90;;;;;;5002258;28;20103;-49
2022/01/13 03:39:05;;;;;;;138.40;21.55;;;4.40;99.90;;;;;;5031581;28;20077;-49
2022/01/13 03:41:31;;;;;;;94.15;17.38;;;4.40;99.90;;;;;;5023712;28;20054;-47
2022/01/13 03:44:03;;;;;;;127.38;21.48;;;4.50;99.90;;;;;;5024360;28;20244;-48
2022/01/13 03:46:29;;;;;;;134.02;21.92;;;4.50;99.90;;;;;;5023711;28;20049;-49
2022/01/13 03:48:55;;;;;;;204.27;25.10;;;4.50;99.90;;;;;;5020054;28;20049;-49
2022/01/13 03:51:21;;;;;;;165.95;22.38;;;4.40;99.90;;;;;;5027296;28;20057;-48
2022/01/13 03:54:24;;;;;;;206.90;25.30;;;4.50;99.90;;;;;;5026540;28;20937;-47
2022/01/13 03:57:08;;;;;;;130.77;19.98;;;4.60;99.90;;;;;;5020183;28;20531;-47
2022/01/13 04:00:15;;;;;;;163.35;23.42;;;4.60;99.90;;;;;;5021060;28;20522;-50
2022/01/13 04:02:41;;;;;;;211.20;28.63;;;4.60;99.90;;;;;;5018709;28;20470;-48
2022/01/13 04:05:06;;;;;;;127.88;20.02;;;4.60;99.90;;;;;;5024804;28;20053;-49
2022/01/13 04:07:32;;;;;;;152.82;24.35;;;4.60;99.90;;;;;;5020452;28;20170;-48
2022/01/13 04:09:58;;;;;;;191.52;27.70;;;4.70;99.90;;;;;;5012810;28;20439;-48
2022/01/13 04:12:26;;;;;;;141.52;23.88;;;4.70;99.90;;;;;;5023136;28;20045;-47
2022/01/13 04:14:58;;;;;;;160.65;24.63;;;4.70;99.90;;;;;;5017615;28;20507;-47
2022/01/13 04:17:25;;;;;;;150.30;25.10;;;4.70;99.90;;;;;;5022182;28;20053;-48
2022/01/13 04:19:51;;;;;;;187.65;27.58;;;4.70;99.90;;;;;;5017077;28;20053;-47
2022/01/13 04:22:18;;;;;;;228.63;30.30;;;4.70;99.90;;;;;;5004485;28;20057;-49
2022/01/13 04:24:46;;;;;;;204.15;26.92;;;4.70;99.90;;;;;;5023843;28;20045;-50
2022/01/13 04:27:21;;;;;;;164.13;26.83;;;4.80;99.90;;;;;;5022990;28;20045;-47
2022/01/13 04:29:49;;;;;;;233.98;32.03;;;4.80;99.90;;;;;;5019536;28;20397;-47
2022/01/13 04:32:15;;;;;;;190.02;29.88;;;4.80;99.90;;;;;;5022812;28;20042;-47
2022/01/13 04:34:42;;;;;;;158.23;26.33;;;4.80;99.90;;;;;;5023326;28;20057;-48
2022/01/13 04:37:08;;;;;;;187.20;28.10;;;4.80;99.90;;;;;;5023634;28;20444;-50
2022/01/13 04:39:35;;;;;;;187.80;27.27;;;4.80;99.90;;;;;;5019110;28;20084;-46
2022/01/13 04:42:01;;;;;;;195.05;28.75;;;4.90;99.90;;;;;;5024236;28;20067;-48
2022/01/13 04:44:26;;;;;;;252.98;33.13;;;4.80;99.90;;;;;;5004627;28;20053;-49
2022/01/13 04:46:54;;;;;;;234.05;32.78;;;4.80;99.90;;;;;;5011936;28;20042;-47
2022/01/13 04:49:21;;;;;;;221.88;30.48;;;4.80;99.90;;;;;;5023127;28;20056;-50
2022/01/13 04:51:48;;;;;;;232.70;31.13;;;4.90;99.90;;;;;;5018246;28;20041;-48
2022/01/13 04:54:14;;;;;;;188.20;27.08;;;4.90;99.90;;;;;;5023708;28;20168;-50
2022/01/13 04:59:15;;;;;;;232.55;31.73;;;4.90;99.90;;;;;;5024130;28;20056;-47
2022/01/13 05:01:41;;;;;;;209.05;29.38;;;5.00;99.90;;;;;;5030159;28;20041;-48
2022/01/13 05:04:09;;;;;;;202.50;28.98;;;5.00;99.90;;;;;;5002128;28;20061;-50
2022/01/13 05:06:35;;;;;;;207.82;28.65;;;5.00;99.90;;;;;;5017236;28;20085;-50
2022/01/13 05:09:01;;;;;;;228.63;30.10;;;5.00;99.90;;;;;;5020384;28;20080;-50
2022/01/13 05:11:27;;;;;;;219.27;31.17;;;5.00;99.90;;;;;;5022764;28;20041;-47
2022/01/13 05:13:53;;;;;;;190.82;28.35;;;5.10;99.90;;;;;;5025270;28;20041;-47
2022/01/13 05:16:27;;;;;;;267.45;33.38;;;5.10;99.90;;;;;;5003184;28;20053;-48
2022/01/13 05:19:10;;;;;;;209.48;30.38;;;5.10;99.90;;;;;;4999851;28;20053;-47
2022/01/13 05:24:04;;;;;;;207.25;32.05;;;5.20;99.90;;;;;;5023257;28;20311;-49
2022/01/13 05:26:30;;;;;;;173.52;28.80;;;5.10;99.90;;;;;;5022732;28;20130;-50
2022/01/13 05:28:56;;;;;;;255.90;37.28;;;5.20;99.90;;;;;;5005054;28;20132;-46
2022/01/13 05:31:22;;;;;;;280.75;36.13;;;5.10;99.90;;;;;;5002160;28;20065;-49
2022/01/13 05:33:49;;;;;;;197.48;32.22;;;5.10;99.90;;;;;;5003335;28;20119;-47
2022/01/13 05:36:15;;;;;;;246.40;34.58;;;5.20;99.90;;;;;;5002690;28;20477;-47
2022/01/13 05:38:44;;;;;;;228.60;33.35;;;5.20;99.90;;;;;;4993363;28;20054;-48
2022/01/13 05:41:13;;;;;;;212.40;32.90;;;5.20;99.90;;;;;;5003057;28;20407;-47
2022/01/13 05:43:44;;;;;;;203.77;32.70;;;5.20;99.90;;;;;;5004631;28;20044;-47
2022/01/13 05:46:10;;;;;;;224.10;32.58;;;5.20;99.90;;;;;;4990204;28;20057;-48
2022/01/13 05:48:35;;;;;;;213.82;34.03;;;5.20;99.90;;;;;;4996476;28;20041;-48
2022/01/13 05:51:01;;;;;;;268.55;35.13;;;5.20;99.90;;;;;;5010144;28;20520;-47
2022/01/13 05:53:27;;;;;;;245.73;35.88;;;5.20;99.90;;;;;;4996703;28;20488;-50
2022/01/13 05:55:53;;;;;;;219.32;33.40;;;5.20;99.90;;;;;;5006185;28;20467;-51
2022/01/13 05:58:18;;;;;;;218.52;31.13;;;5.30;99.90;;;;;;4998613;28;20436;-47
2022/01/13 06:00:44;;;;;;;233.13;34.47;;;5.20;99.90;;;;;;4996870;28;20081;-51
2022/01/13 06:03:10;;;;;;;241.25;34.03;;;5.20;99.90;;;;;;5003080;28;20085;-47
2022/01/13 06:05:37;;;;;;;209.20;32.13;;;5.20;99.90;;;;;;5002040;28;20092;-47
2022/01/13 06:08:04;;;;;;;249.57;34.83;;;5.20;99.90;;;;;;5001625;28;20501;-48
2022/01/13 06:10:30;;;;;;;261.08;34.55;;;5.10;99.90;;;;;;4997999;28;20050;-48
2022/01/13 06:12:56;;;;;;;266.38;34.70;;;5.20;99.90;;;;;;5005955;28;20093;-47
2022/01/13 06:15:25;;;;;;;260.60;35.15;;;5.10;99.90;;;;;;5003045;28;20130;-50
2022/01/13 06:17:53;;;;;;;515.47;59.20;;;5.20;99.90;;;;;;5001170;28;20062;-50
2022/01/13 06:20:19;;;;;;;430.92;47.40;;;5.20;99.90;;;;;;5001586;28;20045;-47
2022/01/13 06:22:47;;;;;;;274.38;33.55;;;5.20;99.90;;;;;;5002692;28;20050;-47
2022/01/13 06:25:15;;;;;;;465.77;48.03;;;5.10;99.90;;;;;;5001158;28;20143;-47
2022/01/13 06:27:41;;;;;;;670.28;63.42;;;5.10;99.90;;;;;;5002471;28;20108;-47
2022/01/13 06:30:09;;;;;;;482.83;50.45;;;5.20;99.90;;;;;;5006319;28;20424;-50
2022/01/13 06:32:36;;;;;;;407.77;44.05;;;5.10;99.90;;;;;;5004969;28;20172;-48
2022/01/13 06:35:05;;;;;;;309.63;37.80;;;5.20;99.90;;;;;;5005539;28;20058;-48
2022/01/13 06:37:31;;;;;;;386.42;44.08;;;5.10;99.90;;;;;;5024295;28;20479;-47
2022/01/13 06:39:57;;;;;;;262.42;32.50;;;5.10;99.90;;;;;;5030404;28;20060;-48
2022/01/13 06:42:25;;;;;;;263.80;35.05;;;5.20;99.90;;;;;;5020987;28;20553;-48
2022/01/13 06:44:51;;;;;;;355.35;41.22;;;5.20;99.90;;;;;;5025310;28;20526;-49
2022/01/13 06:47:17;;;;;;;248.80;34.58;;;5.20;99.90;;;;;;5025675;28;20080;-48
2022/01/13 06:49:46;;;;;;;362.00;41.03;;;5.20;99.90;;;;;;5015858;28;20370;-47
2022/01/13 06:52:13;;;;;;;413.80;45.13;;;5.20;99.90;;;;;;5009208;28;20060;-50
2022/01/13 06:54:38;;;;;;;278.27;36.42;;;5.10;99.90;;;;;;5025308;28;20085;-48
2022/01/13 06:57:04;;;;;;;213.68;34.10;;;5.20;99.90;;;;;;5011089;28;20129;-47
2022/01/13 06:59:30;;;;;;;238.23;36.80;;;5.10;99.90;;;;;;5006091;28;20118;-48
2022/01/13 07:01:59;;;;;;;334.13;39.40;;;5.20;99.90;;;;;;5025446;28;20565;-48
2022/01/13 07:04:27;;;;;;;292.20;39.72;;;5.10;99.90;;;;;;4991005;28;20049;-47
2022/01/13 07:06:53;;;;;;;269.90;34.00;;;5.20;99.90;;;;;;5025459;28;20104;-48
2022/01/13 07:09:19;;;;;;;163.50;30.05;;;5.10;99.90;;;;;;5024191;28;20057;-47
2022/01/13 07:11:45;;;;;;;187.68;32.85;;;5.20;99.90;;;;;;5026115;28;20045;-47
2022/01/13 07:14:11;;;;;;;214.77;35.28;;;5.20;99.90;;;;;;5007749;28;20063;-48
2022/01/13 07:16:39;;;;;;;192.25;32.85;;;5.20;99.90;;;;;;5023696;28;20099;-47
2022/01/13 07:19:05;;;;;;;192.77;34.63;;;5.20;99.90;;;;;;5005533;28;20053;-48
2022/01/13 07:21:33;;;;;;;187.38;33.10;;;5.10;99.90;;;;;;5002565;28;20075;-50
2022/01/13 07:24:02;;;;;;;182.80;33.55;;;5.20;99.90;;;;;;5027762;28;20122;-49
2022/01/13 07:26:31;;;;;;;176.88;31.02;;;5.20;99.90;;;;;;5025825;28;20045;-50
2022/01/13 07:28:57;;;;;;;152.02;28.27;;;5.30;99.90;;;;;;5012546;28;20049;-50
2022/01/13 07:31:23;;;;;;;197.88;34.42;;;5.20;99.90;;;;;;5024358;28;20063;-48
2022/01/13 07:33:49;;;;;;;203.68;34.47;;;5.20;99.90;;;;;;5025989;28;20559;-47
2022/01/13 07:36:15;;;;;;;212.23;37.22;;;5.20;99.90;;;;;;5005796;28;20046;-48
2022/01/13 07:38:41;;;;;;;180.70;34.67;;;5.30;99.90;;;;;;5009440;28;20539;-48
2022/01/13 07:41:07;;;;;;;199.60;37.00;;;5.20;99.90;;;;;;4998463;28;20049;-50
2022/01/13 07:43:33;;;;;;;159.82;31.85;;;5.20;99.90;;;;;;4988602;28;20088;-47
2022/01/13 07:45:59;;;;;;;245.95;38.10;;;5.30;99.90;;;;;;5023863;28;20087;-47
2022/01/13 07:48:25;;;;;;;154.95;31.33;;;5.20;99.90;;;;;;5018084;28;20054;-47
2022/01/13 07:50:52;;;;;;;200.95;37.42;;;5.20;99.90;;;;;;5000075;28;20053;-49
2022/01/13 07:53:18;;;;;;;211.48;37.75;;;5.20;99.90;;;;;;5017591;28;20120;-47
2022/01/13 07:55:44;;;;;;;172.43;32.65;;;5.20;99.90;;;;;;5022184;28;20075;-50
2022/01/13 07:58:10;;;;;;;214.60;37.90;;;5.30;99.90;;;;;;5014186;28;20515;-47
2022/01/13 08:00:36;;;;;;;220.60;40.33;;;5.20;99.90;;;;;;5015164;28;20697;-47
2022/01/13 08:03:02;;;;;;;152.65;44.30;;;5.20;99.90;;;;;;5016776;28;20049;-47
2022/01/13 08:05:28;;;;;;;203.77;51.42;;;5.30;99.90;;;;;;5015541;28;20045;-48
2022/01/13 08:07:54;;;;;;;232.55;60.70;;;5.30;99.90;;;;;;5015376;28;20045;-47
2022/01/13 08:10:20;;;;;;;212.80;49.60;;;5.30;99.90;;;;;;5016173;28;20045;-46
2022/01/13 08:12:46;;;;;;;163.10;35.50;;;5.30;99.90;;;;;;5017517;28;20416;-46
2022/01/13 08:15:14;;;;;;;230.38;42.15;;;5.40;99.90;;;;;;5018276;28;20053;-49
2022/01/13 08:20:31;;;;;;;172.27;35.85;;;5.40;99.90;;;;;;5013015;28;20424;-49
2022/01/13 08:22:58;;;;;;;182.93;44.15;;;5.40;99.90;;;;;;5009856;28;20147;-48
2022/01/13 08:25:25;;;;;;;208.80;44.78;;;5.40;99.90;;;;;;5016100;28;20134;-50
2022/01/13 08:27:51;;;;;;;175.73;38.33;;;5.30;99.90;;;;;;5017670;28;20152;-50
2022/01/13 08:30:17;;;;;;;143.38;35.50;;;5.40;99.90;;;;;;5018442;28;20049;-48
2022/01/13 08:32:43;;;;;;;418.30;121.93;;;5.50;99.90;;;;;;5019960;28;20068;-51
2022/01/13 08:35:10;;;;;;;317.48;106.18;;;5.50;99.90;;;;;;5018824;28;20049;-48
2022/01/13 08:37:36;;;;;;;225.98;68.75;;;5.40;99.90;;;;;;5019608;28;20089;-47
2022/01/13 08:40:05;;;;;;;210.30;67.60;;;5.50;99.90;;;;;;5015668;28;20046;-50
2022/01/13 08:42:35;;;;;;;185.57;64.53;;;5.40;99.90;;;;;;5019700;28;20052;-47
2022/01/13 08:45:03;;;;;;;206.10;70.60;;;5.60;99.90;;;;;;5016413;28;20049;-47
2022/01/13 08:47:29;;;;;;;164.38;52.03;;;5.60;99.90;;;;;;5019088;28;20049;-49
2022/01/13 08:49:56;;;;;;;174.95;61.40;;;5.60;99.90;;;;;;5015209;28;20044;-50
2022/01/13 08:52:23;;;;;;;162.18;46.78;;;5.60;99.90;;;;;;5017446;28;20085;-47
2022/01/13 08:54:50;;;;;;;153.95;49.72;;;5.60;99.90;;;;;;4998691;28;20054;-48
2022/01/13 08:57:16;;;;;;;183.32;61.95;;;5.70;99.90;;;;;;5024204;28;20490;-48
2022/01/13 08:59:42;;;;;;;143.48;38.25;;;5.70;99.90;;;;;;5001414;28;20053;-49
2022/01/13 09:02:24;;;;;;;151.77;41.78;;;5.60;99.90;;;;;;5023172;28;20477;-47
2022/01/13 09:04:50;;;;;;;103.75;37.38;;;5.70;99.90;;;;;;5020228;28;20049;-49
2022/01/13 09:07:25;;;;;;;149.32;38.25;;;5.70;99.90;;;;;;5006385;28;20072;-49
2022/01/13 09:09:51;;;;;;;145.13;49.22;;;5.70;99.90;;;;;;5008109;28;20512;-49
2022/01/13 09:12:25;;;;;;;157.20;42.35;;;5.70;99.90;;;;;;5026397;28;20045;-48
2022/01/13 09:14:58;;;;;;;185.25;61.58;;;5.80;99.90;;;;;;5026483;28;20056;-47
2022/01/13 09:17:24;;;;;;;186.82;60.70;;;5.80;99.90;;;;;;5021199;28;20353;-48
2022/01/13 09:19:53;;;;;;;132.43;50.13;;;5.80;99.90;;;;;;5015858;28;20592;-48
2022/01/13 09:22:20;;;;;;;160.75;54.47;;;5.70;99.90;;;;;;5007089;28;20139;-47
2022/01/13 09:24:46;;;;;;;166.00;62.30;;;5.80;99.90;;;;;;5005769;28;20065;-51
2022/01/13 09:27:13;;;;;;;178.95;65.35;;;5.90;99.90;;;;;;5005347;28;20071;-47
2022/01/13 09:29:39;;;;;;;184.90;64.13;;;5.80;99.90;;;;;;5023225;28;20526;-48
2022/01/13 09:32:06;;;;;;;166.35;55.92;;;5.80;99.90;;;;;;5023585;28;20058;-47
2022/01/13 09:34:32;;;;;;;165.43;63.47;;;5.90;99.90;;;;;;5025751;28;20084;-49
2022/01/13 09:36:57;;;;;;;182.98;78.55;;;5.80;99.90;;;;;;5023330;28;20220;-50
2022/01/13 09:39:23;;;;;;;152.13;65.75;;;5.90;99.90;;;;;;5021362;28;20045;-48
2022/01/13 09:41:52;;;;;;;181.02;74.95;;;6.00;99.90;;;;;;5004019;28;20053;-48
2022/01/13 09:44:18;;;;;;;160.48;65.72;;;5.90;99.90;;;;;;4994776;28;20061;-47
2022/01/13 09:46:45;;;;;;;147.68;58.85;;;5.90;99.90;;;;;;5008813;28;20064;-48
2022/01/13 09:49:11;;;;;;;171.63;91.30;;;5.90;99.90;;;;;;5021828;28;20057;-47
2022/01/13 09:51:38;;;;;;;145.60;66.78;;;6.10;99.90;;;;;;5021025;28;20594;-49
2022/01/13 09:54:04;;;;;;;143.77;57.65;;;6.00;99.90;;;;;;5002593;28;20579;-50
2022/01/13 09:56:33;;;;;;;147.95;58.30;;;6.10;99.90;;;;;;5022123;28;20099;-47
2022/01/13 09:58:59;;;;;;;142.88;57.95;;;6.00;99.90;;;;;;5002270;28;20080;-48
2022/01/13 10:01:24;;;;;;;121.57;58.53;;;6.20;99.90;;;;;;5020258;28;20484;-47
2022/01/13 10:03:50;;;;;;;130.93;45.05;;;6.10;99.90;;;;;;5021444;28;20112;-48
2022/01/13 10:06:18;;;;;;;135.48;48.58;;;6.20;99.90;;;;;;5004189;28;20404;-47
2022/01/13 10:08:47;;;;;;;154.10;72.13;;;6.20;99.90;;;;;;5017458;28;20067;-49
2022/01/13 10:11:41;;;;;;;135.35;46.50;;;6.20;99.90;;;;;;5025086;28;20155;-47
2022/01/13 10:16:58;;;;;;;123.15;47.60;;;6.20;99.90;;;;;;5019959;28;20650;-48
2022/01/13 10:19:25;;;;;;;120.18;47.15;;;6.30;99.90;;;;;;5019128;28;20064;-47
2022/01/13 10:22:23;;;;;;;118.50;39.40;;;6.20;99.90;;;;;;5004767;28;20049;-50
2022/01/13 10:24:53;;;;;;;123.95;44.67;;;6.30;99.90;;;;;;5018124;28;20054;-46
2022/01/13 10:27:22;;;;;;;124.55;48.38;;;6.30;99.90;;;;;;5020902;28;20132;-48
2022/01/13 10:29:51;;;;;;;127.63;45.97;;;6.40;99.90;;;;;;5019043;28;20057;-48
2022/01/13 10:32:25;;;;;;;105.68;39.53;;;6.30;99.90;;;;;;5009102;28;20142;-49
2022/01/13 10:35:03;;;;;;;101.57;33.35;;;6.40;99.90;;;;;;5026936;28;20113;-47
2022/01/13 10:37:33;;;;;;;103.95;35.63;;;6.30;99.90;;;;;;5018658;28;20161;-48
2022/01/13 10:40:20;;;;;;;95.53;34.10;;;6.40;99.90;;;;;;5023430;28;20111;-48
2022/01/13 10:45:26;;;;;;;95.57;33.88;;;6.40;99.90;;;;;;5025393;28;20053;-49
2022/01/13 10:47:58;;;;;;;94.15;32.10;;;6.40;99.90;;;;;;5006845;28;20061;-46
2022/01/13 10:50:30;;;;;;;108.50;34.60;;;6.40;99.90;;;;;;5008410;28;20057;-47
2022/01/13 10:53:02;;;;;;;108.30;33.23;;;6.50;99.90;;;;;;5008561;28;20109;-50
2022/01/13 10:55:30;;;;;;;124.68;36.53;;;6.50;99.90;;;;;;5027103;28;20346;-47
2022/01/13 10:57:57;;;;;;;92.65;33.17;;;6.50;99.90;;;;;;5005711;28;20056;-48
2022/01/13 11:00:24;;;;;;;104.00;34.03;;;6.50;99.90;;;;;;5024803;28;20088;-49
2022/01/13 11:03:06;;;;;;;111.72;40.10;;;6.60;99.90;;;;;;5018855;28;20095;-51
2022/01/13 11:05:35;;;;;;;97.20;35.50;;;6.60;99.90;;;;;;4992007;28;20122;-47
2022/01/13 11:08:03;;;;;;;101.32;33.78;;;6.60;99.90;;;;;;5002797;28;20065;-49
2022/01/13 11:10:29;;;;;;;86.32;33.97;;;6.60;99.90;;;;;;5001448;28;20057;-48
2022/01/13 11:13:03;;;;;;;103.72;37.10;;;6.60;99.90;;;;;;5023299;28;20472;-47
2022/01/13 11:15:29;;;;;;;92.57;34.40;;;6.60;99.90;;;;;;5025203;28;20124;-48
2022/01/13 11:17:58;;;;;;;101.03;44.25;;;6.60;99.90;;;;;;5019767;28;20037;-47
2022/01/13 11:20:25;;;;;;;105.65;44.97;;;6.70;99.90;;;;;;5023623;28;20435;-48
2022/01/13 11:22:53;;;;;;;98.53;43.15;;;6.80;99.90;;;;;;5011500;28;20491;-47
2022/01/13 11:25:23;;;;;;;119.35;50.22;;;6.80;99.90;;;;;;5001815;28;20103;-47
2022/01/13 11:27:50;;;;;;;120.40;55.25;;;6.70;99.90;;;;;;5019038;28;20143;-47
2022/01/13 11:30:18;;;;;;;126.43;66.53;;;6.80;99.90;;;;;;5024003;28;20053;-48
2022/01/13 11:32:45;;;;;;;94.55;40.13;;;6.70;99.90;;;;;;5023995;28;20127;-51
2022/01/13 11:35:42;;;;;;;74.15;36.13;;;6.80;99.90;;;;;;5026370;28;20053;-47
2022/01/13 11:38:14;;;;;;;79.18;35.53;;;6.80;99.90;;;;;;5013852;28;20431;-47
2022/01/13 11:40:45;;;;;;;85.60;39.83;;;6.80;99.90;;;;;;5019394;28;20400;-48
2022/01/13 11:43:28;;;;;;;68.25;35.85;;;6.80;99.90;;;;;;5023046;28;20053;-48
2022/01/13 11:45:55;;;;;;;72.70;34.50;;;6.90;99.90;;;;;;5023910;28;20045;-48
2022/01/13 11:48:26;;;;;;;78.85;37.88;;;6.90;99.90;;;;;;5011782;28;20267;-51
2022/01/13 11:51:13;;;;;;;71.88;34.90;;;6.80;99.90;;;;;;5023605;28;20104;-48
2022/01/13 11:53:41;;;;;;;79.10;37.33;;;7.00;99.90;;;;;;5019599;28;20045;-48
2022/01/13 11:56:08;;;;;;;91.95;48.88;;;7.00;99.90;;;;;;5009744;28;20061;-48
2022/01/13 11:58:42;;;;;;;86.65;45.30;;;7.00;99.90;;;;;;5023961;28;20056;-48
2022/01/13 12:01:32;;;;;;;75.88;39.55;;;7.00;99.90;;;;;;5020509;28;20054;-47
2022/01/13 12:04:04;;;;;;;75.45;38.33;;;7.10;99.90;;;;;;5018925;28;20049;-48
2022/01/13 12:06:44;;;;;;;79.90;39.97;;;7.10;99.90;;;;;;5020608;28;20091;-48
2022/01/13 12:09:22;;;;;;;81.20;47.00;;;7.20;99.90;;;;;;5024776;28;20488;-47
2022/01/13 12:11:55;;;;;;;119.30;79.45;;;7.10;99.90;;;;;;5024149;28;20496;-51
2022/01/13 12:14:28;;;;;;;227.52;178.35;;;7.00;99.90;;;;;;5023803;28;20064;-49
2022/01/13 12:17:04;;;;;;;127.82;81.03;;;7.00;99.90;;;;;;5024676;28;20155;-48
2022/01/13 12:19:39;;;;;;;99.85;64.35;;;7.20;99.90;;;;;;5006243;28;20068;-51
2022/01/13 12:22:12;;;;;;;97.55;65.35;;;7.00;99.90;;;;;;5004656;28;20091;-50
2022/01/13 12:24:47;;;;;;;;;;;7.10;99.90;;;;;;5025282;28;20099;-49
2022/01/13 12:27:13;;;;;;;81.30;47.05;;;7.00;99.90;;;;;;5028447;28;19924;-48
2022/01/13 12:30:10;;;;;;;83.30;51.08;;;7.10;99.90;;;;;;5004794;28;20438;-48
2022/01/13 12:33:09;;;;;;;79.97;40.63;;;7.10;99.90;;;;;;5001378;28;20141;-47
2022/01/13 12:35:34;;;;;;;71.32;39.28;;;7.20;99.90;;;;;;5009630;28;20065;-48
2022/01/13 12:38:10;;;;;;;75.50;43.08;;;7.20;99.90;;;;;;5025716;28;20068;-48
2022/01/13 12:40:47;;;;;;;76.82;43.95;;;7.20;99.90;;;;;;5023527;28;20080;-50
2022/01/13 12:43:23;;;;;;;67.07;36.75;;;7.30;99.90;;;;;;5020360;28;20093;-47
2022/01/13 12:45:50;;;;;;;72.55;38.33;;;7.20;99.90;;;;;;5003654;28;20377;-48
2022/01/13 12:48:15;;;;;;;74.38;39.50;;;7.30;99.90;;;;;;5014304;28;20059;-48
2022/01/13 12:50:44;;;;;;;65.88;35.97;;;7.40;99.90;;;;;;5024722;28;20050;-48
2022/01/13 12:53:16;;;;;;;63.03;34.63;;;7.30;99.90;;;;;;5019217;28;20057;-48
2022/01/13 12:55:58;;;;;;;68.57;35.78;;;7.50;99.90;;;;;;5025071;28;20084;-47
2022/01/13 12:58:31;;;;;;;75.30;37.88;;;7.40;99.90;;;;;;4978577;28;20078;-49
2022/01/13 13:01:03;;;;;;;58.67;32.33;;;7.50;99.90;;;;;;4977617;28;20065;-48
2022/01/13 13:03:28;;;;;;;65.78;35.75;;;7.50;99.90;;;;;;4961271;28;20746;-47
2022/01/13 13:05:56;;;;;;;63.40;34.13;;;7.50;99.90;;;;;;4979058;28;20058;-47
2022/01/13 13:08:25;;;;;;;63.05;35.70;;;7.40;99.90;;;;;;4976093;28;20098;-47
2022/01/13 13:10:55;;;;;;;58.67;36.22;;;7.40;99.90;;;;;;4981798;28;20132;-49